sensor_id;sensor_type;location;lat;lon;timestamp;P1;durP1;ratioP1;P2;durP2;ratioP2
78197;SDS011;67472;51.554;7.812;2023-09-19T00:02:39;7.00;;;2.30;;
78197;SDS011;67472;51.554;7.812;2023-09-19T00:05:25;3.33;;;1.90;;
78197;SDS011;67472;51.554;7.812;2023-09-19T00:08:13;6.78;;;2.25;;
78197;SDS011;67472;51.554;7.812;2023-09-19T00:10:59;6.32;;;2.28;;
78197;SDS011;67472;51.554;7.812;2023-09-19T00:13:47;6.05;;;2.20;;
78197;SDS011;67472;51.554;7.812;2023-09-19T00:16:34;5.28;;;2.30;;
78197;SDS011;67472;51.554;7.812;2023-09-19T00:19:22;6.60;;;2.55;;
78197;SDS011;67472;51.554;7.812;2023-09-19T00:22:09;3.45;;;2.22;;
78197;SDS011;67472;51.554;7.812;2023-09-19T00:24:55;5.00;;;2.13;;
78197;SDS011;67472;51.554;7.812;2023-09-19T00:27:41;4.50;;;2.25;;
78197;SDS011;67472;51.554;7.812;2023-09-19T00:30:29;7.07;;;2.28;;
78197;SDS011;67472;51.554;7.812;2023-09-19T00:33:15;6.03;;;2.33;;
78197;SDS011;67472;51.554;7.812;2023-09-19T00:36:05;5.88;;;3.15;;
78197;SDS011;67472;51.554;7.812;2023-09-19T00:38:51;11.65;;;2.35;;
78197;SDS011;67472;51.554;7.812;2023-09-19T00:41:37;4.65;;;2.40;;
78197;SDS011;67472;51.554;7.812;2023-09-19T00:44:25;4.43;;;2.10;;
78197;SDS011;67472;51.554;7.812;2023-09-19T00:47:12;7.65;;;2.55;;
78197;SDS011;67472;51.554;7.812;2023-09-19T00:50:03;5.35;;;2.35;;
78197;SDS011;67472;51.554;7.812;2023-09-19T00:52:54;10.52;;;2.63;;
78197;SDS011;67472;51.554;7.812;2023-09-19T00:55:41;11.15;;;2.30;;
78197;SDS011;67472;51.554;7.812;2023-09-19T00:58:29;10.00;;;2.53;;
78197;SDS011;67472;51.554;7.812;2023-09-19T01:01:19;11.50;;;2.60;;
78197;SDS011;67472;51.554;7.812;2023-09-19T01:04:06;9.30;;;2.22;;
78197;SDS011;67472;51.554;7.812;2023-09-19T01:06:53;5.72;;;1.92;;
78197;SDS011;67472;51.554;7.812;2023-09-19T01:09:42;6.10;;;1.80;;
78197;SDS011;67472;51.554;7.812;2023-09-19T01:12:30;9.02;;;2.42;;
78197;SDS011;67472;51.554;7.812;2023-09-19T01:15:28;5.90;;;1.98;;
78197;SDS011;67472;51.554;7.812;2023-09-19T01:18:27;11.05;;;2.22;;
78197;SDS011;67472;51.554;7.812;2023-09-19T01:21:23;7.47;;;2.10;;
78197;SDS011;67472;51.554;7.812;2023-09-19T01:24:18;6.38;;;2.20;;
78197;SDS011;67472;51.554;7.812;2023-09-19T01:27:29;9.93;;;2.63;;
78197;SDS011;67472;51.554;7.812;2023-09-19T01:30:31;8.88;;;2.05;;
78197;SDS011;67472;51.554;7.812;2023-09-19T01:33:21;13.93;;;2.30;;
78197;SDS011;67472;51.554;7.812;2023-09-19T01:36:07;11.50;;;2.42;;
78197;SDS011;67472;51.554;7.812;2023-09-19T01:38:53;8.25;;;2.50;;
78197;SDS011;67472;51.554;7.812;2023-09-19T01:41:45;10.57;;;2.58;;
78197;SDS011;67472;51.554;7.812;2023-09-19T01:44:36;8.05;;;2.17;;
78197;SDS011;67472;51.554;7.812;2023-09-19T01:47:33;9.63;;;1.92;;
78197;SDS011;67472;51.554;7.812;2023-09-19T01:50:26;4.43;;;1.75;;
78197;SDS011;67472;51.554;7.812;2023-09-19T01:53:19;9.05;;;2.50;;
78197;SDS011;67472;51.554;7.812;2023-09-19T01:56:28;10.88;;;2.42;;
78197;SDS011;67472;51.554;7.812;2023-09-19T01:59:21;11.55;;;2.60;;
78197;SDS011;67472;51.554;7.812;2023-09-19T02:02:12;8.65;;;2.38;;
78197;SDS011;67472;51.554;7.812;2023-09-19T02:05:02;12.43;;;2.22;;
78197;SDS011;67472;51.554;7.812;2023-09-19T02:07:49;4.88;;;2.00;;
78197;SDS011;67472;51.554;7.812;2023-09-19T02:10:37;10.90;;;2.65;;
78197;SDS011;67472;51.554;7.812;2023-09-19T02:13:24;10.30;;;2.65;;
78197;SDS011;67472;51.554;7.812;2023-09-19T02:16:12;7.78;;;2.17;;
78197;SDS011;67472;51.554;7.812;2023-09-19T02:19:05;7.28;;;2.20;;
78197;SDS011;67472;51.554;7.812;2023-09-19T02:21:52;5.35;;;1.67;;
78197;SDS011;67472;51.554;7.812;2023-09-19T02:24:39;10.98;;;2.40;;
78197;SDS011;67472;51.554;7.812;2023-09-19T02:27:26;7.30;;;2.28;;
78197;SDS011;67472;51.554;7.812;2023-09-19T02:30:13;14.32;;;2.92;;
78197;SDS011;67472;51.554;7.812;2023-09-19T02:33:00;10.05;;;2.33;;
78197;SDS011;67472;51.554;7.812;2023-09-19T02:35:47;13.43;;;2.63;;
78197;SDS011;67472;51.554;7.812;2023-09-19T02:38:35;7.68;;;3.03;;
78197;SDS011;67472;51.554;7.812;2023-09-19T02:41:21;9.63;;;2.45;;
78197;SDS011;67472;51.554;7.812;2023-09-19T02:44:08;4.72;;;1.90;;
78197;SDS011;67472;51.554;7.812;2023-09-19T02:46:54;7.05;;;1.73;;
78197;SDS011;67472;51.554;7.812;2023-09-19T02:49:42;7.78;;;1.83;;
78197;SDS011;67472;51.554;7.812;2023-09-19T02:52:29;9.60;;;1.98;;
78197;SDS011;67472;51.554;7.812;2023-09-19T02:55:17;9.73;;;2.20;;
78197;SDS011;67472;51.554;7.812;2023-09-19T02:58:05;11.27;;;2.50;;
78197;SDS011;67472;51.554;7.812;2023-09-19T03:00:52;8.82;;;2.83;;
78197;SDS011;67472;51.554;7.812;2023-09-19T03:03:40;8.88;;;2.33;;
78197;SDS011;67472;51.554;7.812;2023-09-19T03:06:26;10.85;;;2.10;;
78197;SDS011;67472;51.554;7.812;2023-09-19T03:09:15;9.48;;;2.13;;
78197;SDS011;67472;51.554;7.812;2023-09-19T03:12:03;5.88;;;1.95;;
78197;SDS011;67472;51.554;7.812;2023-09-19T03:14:52;6.95;;;2.25;;
78197;SDS011;67472;51.554;7.812;2023-09-19T03:17:40;9.30;;;2.50;;
78197;SDS011;67472;51.554;7.812;2023-09-19T03:20:28;10.90;;;2.38;;
78197;SDS011;67472;51.554;7.812;2023-09-19T03:23:16;9.10;;;1.98;;
78197;SDS011;67472;51.554;7.812;2023-09-19T03:26:02;9.88;;;2.33;;
78197;SDS011;67472;51.554;7.812;2023-09-19T03:28:50;7.97;;;2.58;;
78197;SDS011;67472;51.554;7.812;2023-09-19T03:31:36;10.00;;;2.05;;
78197;SDS011;67472;51.554;7.812;2023-09-19T03:34:25;7.03;;;2.65;;
78197;SDS011;67472;51.554;7.812;2023-09-19T03:37:12;16.52;;;2.45;;
78197;SDS011;67472;51.554;7.812;2023-09-19T03:39:58;11.80;;;3.10;;
78197;SDS011;67472;51.554;7.812;2023-09-19T03:42:50;8.40;;;2.28;;
78197;SDS011;67472;51.554;7.812;2023-09-19T03:45:37;9.48;;;1.88;;
78197;SDS011;67472;51.554;7.812;2023-09-19T03:48:25;10.50;;;2.35;;
78197;SDS011;67472;51.554;7.812;2023-09-19T03:51:11;12.25;;;2.22;;
78197;SDS011;67472;51.554;7.812;2023-09-19T03:53:57;7.50;;;2.60;;
78197;SDS011;67472;51.554;7.812;2023-09-19T03:56:43;13.18;;;2.17;;
78197;SDS011;67472;51.554;7.812;2023-09-19T03:59:30;11.73;;;2.78;;
78197;SDS011;67472;51.554;7.812;2023-09-19T04:02:17;10.38;;;2.22;;
78197;SDS011;67472;51.554;7.812;2023-09-19T04:05:08;11.15;;;2.88;;
78197;SDS011;67472;51.554;7.812;2023-09-19T04:07:55;7.45;;;2.55;;
78197;SDS011;67472;51.554;7.812;2023-09-19T04:10:41;9.60;;;2.47;;
78197;SDS011;67472;51.554;7.812;2023-09-19T04:13:29;7.13;;;1.95;;
78197;SDS011;67472;51.554;7.812;2023-09-19T04:16:15;8.18;;;2.92;;
78197;SDS011;67472;51.554;7.812;2023-09-19T04:19:03;7.13;;;2.10;;
78197;SDS011;67472;51.554;7.812;2023-09-19T04:21:50;12.50;;;2.03;;
78197;SDS011;67472;51.554;7.812;2023-09-19T04:24:36;20.08;;;2.85;;
78197;SDS011;67472;51.554;7.812;2023-09-19T04:27:22;12.02;;;3.03;;
78197;SDS011;67472;51.554;7.812;2023-09-19T04:30:08;13.93;;;2.58;;
78197;SDS011;67472;51.554;7.812;2023-09-19T04:32:56;7.15;;;2.60;;
78197;SDS011;67472;51.554;7.812;2023-09-19T04:35:43;10.88;;;2.20;;
78197;SDS011;67472;51.554;7.812;2023-09-19T04:38:29;12.25;;;2.78;;
78197;SDS011;67472;51.554;7.812;2023-09-19T04:41:15;5.38;;;2.13;;
78197;SDS011;67472;51.554;7.812;2023-09-19T04:44:01;9.13;;;2.15;;
78197;SDS011;67472;51.554;7.812;2023-09-19T04:46:48;7.80;;;3.15;;
78197;SDS011;67472;51.554;7.812;2023-09-19T04:49:35;11.75;;;2.22;;
78197;SDS011;67472;51.554;7.812;2023-09-19T04:52:22;7.82;;;2.03;;
78197;SDS011;67472;51.554;7.812;2023-09-19T04:55:09;12.05;;;2.33;;
78197;SDS011;67472;51.554;7.812;2023-09-19T04:57:55;16.85;;;3.78;;
78197;SDS011;67472;51.554;7.812;2023-09-19T05:00:41;10.95;;;2.20;;
78197;SDS011;67472;51.554;7.812;2023-09-19T05:03:28;7.32;;;2.58;;
78197;SDS011;67472;51.554;7.812;2023-09-19T05:06:14;9.32;;;2.40;;
78197;SDS011;67472;51.554;7.812;2023-09-19T05:09:01;6.93;;;2.10;;
78197;SDS011;67472;51.554;7.812;2023-09-19T05:11:50;6.28;;;2.22;;
78197;SDS011;67472;51.554;7.812;2023-09-19T05:14:38;12.00;;;2.70;;
78197;SDS011;67472;51.554;7.812;2023-09-19T05:17:25;6.05;;;2.40;;
78197;SDS011;67472;51.554;7.812;2023-09-19T05:20:11;11.93;;;2.35;;
78197;SDS011;67472;51.554;7.812;2023-09-19T05:22:59;6.07;;;2.20;;
78197;SDS011;67472;51.554;7.812;2023-09-19T05:25:48;11.30;;;2.75;;
78197;SDS011;67472;51.554;7.812;2023-09-19T05:28:34;10.15;;;2.00;;
78197;SDS011;67472;51.554;7.812;2023-09-19T05:31:20;14.05;;;2.65;;
78197;SDS011;67472;51.554;7.812;2023-09-19T05:34:07;8.73;;;1.95;;
78197;SDS011;67472;51.554;7.812;2023-09-19T05:36:54;7.35;;;2.70;;
78197;SDS011;67472;51.554;7.812;2023-09-19T05:39:40;13.80;;;2.17;;
78197;SDS011;67472;51.554;7.812;2023-09-19T05:42:28;9.65;;;2.67;;
78197;SDS011;67472;51.554;7.812;2023-09-19T05:45:14;11.52;;;2.22;;
78197;SDS011;67472;51.554;7.812;2023-09-19T05:48:07;12.13;;;3.72;;
78197;SDS011;67472;51.554;7.812;2023-09-19T05:50:54;8.88;;;2.20;;
78197;SDS011;67472;51.554;7.812;2023-09-19T05:53:40;8.25;;;2.33;;
78197;SDS011;67472;51.554;7.812;2023-09-19T05:56:27;7.00;;;1.75;;
78197;SDS011;67472;51.554;7.812;2023-09-19T05:59:15;11.35;;;2.53;;
78197;SDS011;67472;51.554;7.812;2023-09-19T06:02:01;9.60;;;2.15;;
78197;SDS011;67472;51.554;7.812;2023-09-19T06:04:49;6.68;;;2.03;;
78197;SDS011;67472;51.554;7.812;2023-09-19T06:07:37;6.45;;;1.85;;
78197;SDS011;67472;51.554;7.812;2023-09-19T06:10:23;14.10;;;2.42;;
78197;SDS011;67472;51.554;7.812;2023-09-19T06:13:09;13.32;;;2.05;;
78197;SDS011;67472;51.554;7.812;2023-09-19T06:15:57;8.85;;;2.00;;
78197;SDS011;67472;51.554;7.812;2023-09-19T06:18:44;7.78;;;2.03;;
78197;SDS011;67472;51.554;7.812;2023-09-19T06:21:31;7.55;;;2.17;;
78197;SDS011;67472;51.554;7.812;2023-09-19T06:24:18;10.25;;;2.42;;
78197;SDS011;67472;51.554;7.812;2023-09-19T06:27:05;8.35;;;2.05;;
78197;SDS011;67472;51.554;7.812;2023-09-19T06:29:53;9.18;;;2.45;;
78197;SDS011;67472;51.554;7.812;2023-09-19T06:32:40;9.48;;;2.22;;
78197;SDS011;67472;51.554;7.812;2023-09-19T06:35:28;14.00;;;2.35;;
78197;SDS011;67472;51.554;7.812;2023-09-19T06:38:17;12.70;;;2.63;;
78197;SDS011;67472;51.554;7.812;2023-09-19T06:41:04;8.43;;;2.00;;
78197;SDS011;67472;51.554;7.812;2023-09-19T06:43:51;10.43;;;2.40;;
78197;SDS011;67472;51.554;7.812;2023-09-19T06:49:40;8.15;;;2.50;;
78197;SDS011;67472;51.554;7.812;2023-09-19T06:52:28;12.15;;;2.58;;
78197;SDS011;67472;51.554;7.812;2023-09-19T06:55:14;9.00;;;1.90;;
78197;SDS011;67472;51.554;7.812;2023-09-19T06:58:01;8.20;;;2.42;;
78197;SDS011;67472;51.554;7.812;2023-09-19T07:00:47;6.32;;;2.03;;
78197;SDS011;67472;51.554;7.812;2023-09-19T07:03:34;8.60;;;2.47;;
78197;SDS011;67472;51.554;7.812;2023-09-19T07:06:22;10.32;;;2.78;;
78197;SDS011;67472;51.554;7.812;2023-09-19T07:09:08;9.93;;;1.95;;
78197;SDS011;67472;51.554;7.812;2023-09-19T07:11:55;11.63;;;2.80;;
78197;SDS011;67472;51.554;7.812;2023-09-19T07:14:41;10.85;;;2.63;;
78197;SDS011;67472;51.554;7.812;2023-09-19T07:17:27;13.27;;;3.00;;
78197;SDS011;67472;51.554;7.812;2023-09-19T07:20:14;8.90;;;2.28;;
78197;SDS011;67472;51.554;7.812;2023-09-19T07:23:02;12.32;;;2.17;;
78197;SDS011;67472;51.554;7.812;2023-09-19T07:25:48;17.90;;;3.42;;
78197;SDS011;67472;51.554;7.812;2023-09-19T07:28:35;13.65;;;2.85;;
78197;SDS011;67472;51.554;7.812;2023-09-19T07:31:21;11.27;;;2.65;;
78197;SDS011;67472;51.554;7.812;2023-09-19T07:34:07;11.30;;;2.30;;
78197;SDS011;67472;51.554;7.812;2023-09-19T07:36:54;13.70;;;2.53;;
78197;SDS011;67472;51.554;7.812;2023-09-19T07:39:42;7.43;;;2.10;;
78197;SDS011;67472;51.554;7.812;2023-09-19T07:42:29;10.43;;;2.00;;
78197;SDS011;67472;51.554;7.812;2023-09-19T07:45:16;13.73;;;2.80;;
78197;SDS011;67472;51.554;7.812;2023-09-19T07:48:02;6.85;;;1.85;;
78197;SDS011;67472;51.554;7.812;2023-09-19T07:50:50;9.48;;;2.42;;
78197;SDS011;67472;51.554;7.812;2023-09-19T07:53:36;16.48;;;3.13;;
78197;SDS011;67472;51.554;7.812;2023-09-19T07:56:24;7.05;;;2.63;;
78197;SDS011;67472;51.554;7.812;2023-09-19T07:59:12;10.05;;;2.92;;
78197;SDS011;67472;51.554;7.812;2023-09-19T08:01:58;12.90;;;2.78;;
78197;SDS011;67472;51.554;7.812;2023-09-19T08:04:45;11.38;;;3.35;;
78197;SDS011;67472;51.554;7.812;2023-09-19T08:07:32;7.50;;;2.17;;
78197;SDS011;67472;51.554;7.812;2023-09-19T08:10:18;13.32;;;2.50;;
78197;SDS011;67472;51.554;7.812;2023-09-19T08:13:07;15.35;;;2.83;;
78197;SDS011;67472;51.554;7.812;2023-09-19T08:15:56;12.85;;;2.67;;
78197;SDS011;67472;51.554;7.812;2023-09-19T08:18:42;8.93;;;2.53;;
78197;SDS011;67472;51.554;7.812;2023-09-19T08:21:27;11.55;;;2.75;;
78197;SDS011;67472;51.554;7.812;2023-09-19T08:24:14;13.75;;;3.38;;
78197;SDS011;67472;51.554;7.812;2023-09-19T08:27:01;14.77;;;2.95;;
78197;SDS011;67472;51.554;7.812;2023-09-19T08:29:54;9.25;;;3.10;;
78197;SDS011;67472;51.554;7.812;2023-09-19T08:32:40;9.68;;;2.60;;
78197;SDS011;67472;51.554;7.812;2023-09-19T08:35:27;12.88;;;3.33;;
78197;SDS011;67472;51.554;7.812;2023-09-19T08:38:14;14.63;;;3.10;;
78197;SDS011;67472;51.554;7.812;2023-09-19T08:41:00;9.88;;;2.28;;
78197;SDS011;67472;51.554;7.812;2023-09-19T08:43:50;12.20;;;3.38;;
78197;SDS011;67472;51.554;7.812;2023-09-19T08:46:39;8.48;;;2.60;;
78197;SDS011;67472;51.554;7.812;2023-09-19T08:49:28;9.88;;;2.72;;
78197;SDS011;67472;51.554;7.812;2023-09-19T08:52:24;10.75;;;3.38;;
78197;SDS011;67472;51.554;7.812;2023-09-19T08:55:13;6.13;;;2.42;;
78197;SDS011;67472;51.554;7.812;2023-09-19T08:58:05;10.57;;;2.40;;
78197;SDS011;67472;51.554;7.812;2023-09-19T09:00:57;13.45;;;2.85;;
78197;SDS011;67472;51.554;7.812;2023-09-19T09:03:47;9.82;;;3.13;;
78197;SDS011;67472;51.554;7.812;2023-09-19T09:06:35;12.05;;;2.78;;
78197;SDS011;67472;51.554;7.812;2023-09-19T09:09:24;16.48;;;3.75;;
78197;SDS011;67472;51.554;7.812;2023-09-19T09:12:11;5.47;;;2.17;;
78197;SDS011;67472;51.554;7.812;2023-09-19T09:14:58;12.23;;;3.30;;
78197;SDS011;67472;51.554;7.812;2023-09-19T09:17:46;14.10;;;2.92;;
78197;SDS011;67472;51.554;7.812;2023-09-19T09:20:34;6.80;;;2.47;;
78197;SDS011;67472;51.554;7.812;2023-09-19T09:23:21;11.52;;;2.85;;
78197;SDS011;67472;51.554;7.812;2023-09-19T09:26:07;9.25;;;2.70;;
78197;SDS011;67472;51.554;7.812;2023-09-19T09:28:53;8.52;;;2.58;;
78197;SDS011;67472;51.554;7.812;2023-09-19T09:31:40;11.95;;;3.03;;
78197;SDS011;67472;51.554;7.812;2023-09-19T09:34:32;9.93;;;2.85;;
78197;SDS011;67472;51.554;7.812;2023-09-19T09:37:20;9.90;;;3.03;;
78197;SDS011;67472;51.554;7.812;2023-09-19T09:40:07;10.90;;;3.40;;
78197;SDS011;67472;51.554;7.812;2023-09-19T09:43:30;6.38;;;2.63;;
78197;SDS011;67472;51.554;7.812;2023-09-19T09:46:21;11.10;;;2.92;;
78197;SDS011;67472;51.554;7.812;2023-09-19T09:49:25;12.95;;;3.05;;
78197;SDS011;67472;51.554;7.812;2023-09-19T09:52:19;4.85;;;1.90;;
78197;SDS011;67472;51.554;7.812;2023-09-19T09:55:08;11.77;;;2.78;;
78197;SDS011;67472;51.554;7.812;2023-09-19T09:58:02;9.18;;;2.88;;
78197;SDS011;67472;51.554;7.812;2023-09-19T10:01:03;10.02;;;2.40;;
78197;SDS011;67472;51.554;7.812;2023-09-19T10:03:57;4.78;;;1.75;;
78197;SDS011;67472;51.554;7.812;2023-09-19T10:06:44;12.05;;;2.70;;
78197;SDS011;67472;51.554;7.812;2023-09-19T10:09:45;5.45;;;2.00;;
78197;SDS011;67472;51.554;7.812;2023-09-19T10:12:33;7.07;;;2.05;;
78197;SDS011;67472;51.554;7.812;2023-09-19T10:15:19;7.50;;;2.30;;
78197;SDS011;67472;51.554;7.812;2023-09-19T10:18:05;9.27;;;2.70;;
78197;SDS011;67472;51.554;7.812;2023-09-19T10:20:53;9.32;;;2.20;;
78197;SDS011;67472;51.554;7.812;2023-09-19T10:23:39;7.07;;;2.22;;
78197;SDS011;67472;51.554;7.812;2023-09-19T10:26:28;9.75;;;2.30;;
78197;SDS011;67472;51.554;7.812;2023-09-19T10:29:16;9.35;;;2.55;;
78197;SDS011;67472;51.554;7.812;2023-09-19T10:32:04;12.52;;;2.22;;
78197;SDS011;67472;51.554;7.812;2023-09-19T10:34:53;8.25;;;2.35;;
78197;SDS011;67472;51.554;7.812;2023-09-19T10:37:41;10.55;;;2.38;;
78197;SDS011;67472;51.554;7.812;2023-09-19T10:40:34;5.90;;;2.03;;
78197;SDS011;67472;51.554;7.812;2023-09-19T10:43:25;7.47;;;2.47;;
78197;SDS011;67472;51.554;7.812;2023-09-19T10:46:14;8.32;;;3.10;;
78197;SDS011;67472;51.554;7.812;2023-09-19T10:49:01;10.60;;;2.30;;
78197;SDS011;67472;51.554;7.812;2023-09-19T10:51:49;9.52;;;2.78;;
78197;SDS011;67472;51.554;7.812;2023-09-19T10:54:41;7.80;;;2.30;;
78197;SDS011;67472;51.554;7.812;2023-09-19T10:57:33;7.95;;;2.08;;
78197;SDS011;67472;51.554;7.812;2023-09-19T11:00:21;8.63;;;2.50;;
78197;SDS011;67472;51.554;7.812;2023-09-19T11:03:17;11.73;;;2.42;;
78197;SDS011;67472;51.554;7.812;2023-09-19T11:06:11;7.70;;;2.03;;
78197;SDS011;67472;51.554;7.812;2023-09-19T11:09:02;5.53;;;1.77;;
78197;SDS011;67472;51.554;7.812;2023-09-19T11:12:00;8.90;;;2.72;;
78197;SDS011;67472;51.554;7.812;2023-09-19T11:14:47;10.57;;;2.65;;
78197;SDS011;67472;51.554;7.812;2023-09-19T11:17:34;8.82;;;2.15;;
78197;SDS011;67472;51.554;7.812;2023-09-19T11:20:21;7.47;;;2.30;;
78197;SDS011;67472;51.554;7.812;2023-09-19T11:23:36;7.47;;;2.58;;
78197;SDS011;67472;51.554;7.812;2023-09-19T11:26:32;7.10;;;2.47;;
78197;SDS011;67472;51.554;7.812;2023-09-19T11:29:28;5.05;;;2.00;;
78197;SDS011;67472;51.554;7.812;2023-09-19T11:32:16;6.13;;;2.22;;
78197;SDS011;67472;51.554;7.812;2023-09-19T11:35:08;7.78;;;2.63;;
78197;SDS011;67472;51.554;7.812;2023-09-19T11:38:03;4.05;;;2.15;;
78197;SDS011;67472;51.554;7.812;2023-09-19T11:44:32;13.15;;;2.47;;
78197;SDS011;67472;51.554;7.812;2023-09-19T11:47:22;7.15;;;1.98;;
78197;SDS011;67472;51.554;7.812;2023-09-19T11:50:11;5.47;;;1.92;;
78197;SDS011;67472;51.554;7.812;2023-09-19T11:53:05;5.63;;;2.33;;
78197;SDS011;67472;51.554;7.812;2023-09-19T11:55:51;8.57;;;1.67;;
78197;SDS011;67472;51.554;7.812;2023-09-19T11:58:38;4.72;;;1.73;;
78197;SDS011;67472;51.554;7.812;2023-09-19T12:01:29;11.23;;;2.35;;
78197;SDS011;67472;51.554;7.812;2023-09-19T12:04:16;6.53;;;1.80;;
78197;SDS011;67472;51.554;7.812;2023-09-19T12:07:10;8.23;;;2.33;;
78197;SDS011;67472;51.554;7.812;2023-09-19T12:10:02;8.80;;;1.95;;
78197;SDS011;67472;51.554;7.812;2023-09-19T12:12:56;6.32;;;2.08;;
78197;SDS011;67472;51.554;7.812;2023-09-19T12:15:44;9.98;;;1.98;;
78197;SDS011;67472;51.554;7.812;2023-09-19T12:18:32;4.55;;;1.95;;
78197;SDS011;67472;51.554;7.812;2023-09-19T12:21:23;7.78;;;1.90;;
78197;SDS011;67472;51.554;7.812;2023-09-19T12:24:13;7.68;;;2.40;;
78197;SDS011;67472;51.554;7.812;2023-09-19T12:27:04;7.97;;;1.88;;
78197;SDS011;67472;51.554;7.812;2023-09-19T12:29:50;8.45;;;1.77;;
78197;SDS011;67472;51.554;7.812;2023-09-19T12:32:40;5.90;;;1.63;;
78197;SDS011;67472;51.554;7.812;2023-09-19T12:35:26;7.38;;;1.92;;
78197;SDS011;67472;51.554;7.812;2023-09-19T12:38:22;5.82;;;2.25;;
78197;SDS011;67472;51.554;7.812;2023-09-19T12:41:10;5.30;;;2.10;;
78197;SDS011;67472;51.554;7.812;2023-09-19T12:43:57;7.22;;;1.67;;
78197;SDS011;67472;51.554;7.812;2023-09-19T12:46:44;5.43;;;1.80;;
78197;SDS011;67472;51.554;7.812;2023-09-19T12:49:30;3.30;;;1.25;;
78197;SDS011;67472;51.554;7.812;2023-09-19T12:52:16;5.13;;;2.20;;
78197;SDS011;67472;51.554;7.812;2023-09-19T12:55:04;5.53;;;1.75;;
78197;SDS011;67472;51.554;7.812;2023-09-19T12:58:01;4.65;;;1.60;;
78197;SDS011;67472;51.554;7.812;2023-09-19T13:00:54;7.45;;;2.17;;
78197;SDS011;67472;51.554;7.812;2023-09-19T13:03:40;3.92;;;1.50;;
78197;SDS011;67472;51.554;7.812;2023-09-19T13:06:35;8.23;;;2.33;;
78197;SDS011;67472;51.554;7.812;2023-09-19T13:09:22;6.75;;;1.80;;
78197;SDS011;67472;51.554;7.812;2023-09-19T13:15:26;6.35;;;1.65;;
78197;SDS011;67472;51.554;7.812;2023-09-19T13:18:14;4.55;;;1.50;;
78197;SDS011;67472;51.554;7.812;2023-09-19T13:21:06;4.45;;;1.70;;
78197;SDS011;67472;51.554;7.812;2023-09-19T13:23:55;3.25;;;1.50;;
78197;SDS011;67472;51.554;7.812;2023-09-19T13:27:03;7.32;;;2.17;;
78197;SDS011;67472;51.554;7.812;2023-09-19T13:29:51;4.07;;;1.58;;
78197;SDS011;67472;51.554;7.812;2023-09-19T13:32:38;4.68;;;1.65;;
78197;SDS011;67472;51.554;7.812;2023-09-19T13:35:25;4.45;;;1.65;;
78197;SDS011;67472;51.554;7.812;2023-09-19T13:38:11;5.22;;;1.73;;
78197;SDS011;67472;51.554;7.812;2023-09-19T13:40:57;8.68;;;1.77;;
78197;SDS011;67472;51.554;7.812;2023-09-19T13:43:45;4.53;;;1.65;;
78197;SDS011;67472;51.554;7.812;2023-09-19T13:46:33;5.85;;;1.65;;
78197;SDS011;67472;51.554;7.812;2023-09-19T13:49:21;6.72;;;2.30;;
78197;SDS011;67472;51.554;7.812;2023-09-19T13:52:08;7.70;;;2.08;;
78197;SDS011;67472;51.554;7.812;2023-09-19T13:54:55;6.85;;;2.35;;
78197;SDS011;67472;51.554;7.812;2023-09-19T13:57:41;6.20;;;2.00;;
78197;SDS011;67472;51.554;7.812;2023-09-19T14:00:28;5.22;;;1.83;;
78197;SDS011;67472;51.554;7.812;2023-09-19T14:03:14;7.22;;;2.20;;
78197;SDS011;67472;51.554;7.812;2023-09-19T14:06:01;7.20;;;1.70;;
78197;SDS011;67472;51.554;7.812;2023-09-19T14:08:48;5.85;;;1.63;;
78197;SDS011;67472;51.554;7.812;2023-09-19T14:11:34;6.40;;;1.60;;
78197;SDS011;67472;51.554;7.812;2023-09-19T14:14:20;4.57;;;1.80;;
78197;SDS011;67472;51.554;7.812;2023-09-19T14:17:06;4.68;;;1.63;;
78197;SDS011;67472;51.554;7.812;2023-09-19T14:19:53;4.90;;;1.38;;
78197;SDS011;67472;51.554;7.812;2023-09-19T14:22:41;6.28;;;1.52;;
78197;SDS011;67472;51.554;7.812;2023-09-19T14:25:27;2.58;;;1.40;;
78197;SDS011;67472;51.554;7.812;2023-09-19T14:28:14;5.22;;;1.52;;
78197;SDS011;67472;51.554;7.812;2023-09-19T14:31:03;6.47;;;1.55;;
78197;SDS011;67472;51.554;7.812;2023-09-19T14:33:54;3.33;;;1.30;;
78197;SDS011;67472;51.554;7.812;2023-09-19T14:36:41;6.18;;;1.55;;
78197;SDS011;67472;51.554;7.812;2023-09-19T14:39:28;5.72;;;1.63;;
78197;SDS011;67472;51.554;7.812;2023-09-19T14:42:14;4.57;;;1.30;;
78197;SDS011;67472;51.554;7.812;2023-09-19T14:45:02;5.82;;;1.35;;
78197;SDS011;67472;51.554;7.812;2023-09-19T14:47:50;5.68;;;1.30;;
78197;SDS011;67472;51.554;7.812;2023-09-19T14:50:39;5.45;;;1.27;;
78197;SDS011;67472;51.554;7.812;2023-09-19T14:53:25;3.85;;;1.25;;
78197;SDS011;67472;51.554;7.812;2023-09-19T14:56:13;4.47;;;1.40;;
78197;SDS011;67472;51.554;7.812;2023-09-19T14:59:03;5.13;;;1.80;;
78197;SDS011;67472;51.554;7.812;2023-09-19T15:01:49;3.40;;;1.27;;
78197;SDS011;67472;51.554;7.812;2023-09-19T15:04:35;7.43;;;1.92;;
78197;SDS011;67472;51.554;7.812;2023-09-19T15:07:21;7.45;;;1.23;;
78197;SDS011;67472;51.554;7.812;2023-09-19T15:10:07;3.65;;;1.10;;
78197;SDS011;67472;51.554;7.812;2023-09-19T15:12:55;6.82;;;1.83;;
78197;SDS011;67472;51.554;7.812;2023-09-19T15:15:41;2.83;;;1.00;;
78197;SDS011;67472;51.554;7.812;2023-09-19T15:18:29;3.03;;;1.05;;
78197;SDS011;67472;51.554;7.812;2023-09-19T15:21:18;3.38;;;1.00;;
78197;SDS011;67472;51.554;7.812;2023-09-19T15:24:04;5.13;;;1.90;;
78197;SDS011;67472;51.554;7.812;2023-09-19T15:26:53;6.85;;;1.25;;
78197;SDS011;67472;51.554;7.812;2023-09-19T15:29:41;4.75;;;1.23;;
78197;SDS011;67472;51.554;7.812;2023-09-19T15:32:28;3.38;;;1.15;;
78197;SDS011;67472;51.554;7.812;2023-09-19T15:35:14;5.35;;;1.77;;
78197;SDS011;67472;51.554;7.812;2023-09-19T15:38:02;2.10;;;0.98;;
78197;SDS011;67472;51.554;7.812;2023-09-19T15:40:49;3.65;;;1.30;;
78197;SDS011;67472;51.554;7.812;2023-09-19T15:43:35;4.28;;;1.35;;
78197;SDS011;67472;51.554;7.812;2023-09-19T15:46:22;1.80;;;1.15;;
78197;SDS011;67472;51.554;7.812;2023-09-19T15:49:11;4.53;;;2.05;;
78197;SDS011;67472;51.554;7.812;2023-09-19T15:51:57;3.80;;;0.80;;
78197;SDS011;67472;51.554;7.812;2023-09-19T15:54:43;4.60;;;0.98;;
78197;SDS011;67472;51.554;7.812;2023-09-19T15:57:29;2.17;;;1.05;;
78197;SDS011;67472;51.554;7.812;2023-09-19T16:00:15;4.15;;;0.90;;
78197;SDS011;67472;51.554;7.812;2023-09-19T16:03:05;3.53;;;1.00;;
78197;SDS011;67472;51.554;7.812;2023-09-19T16:05:51;2.22;;;0.93;;
78197;SDS011;67472;51.554;7.812;2023-09-19T16:08:39;3.08;;;1.30;;
78197;SDS011;67472;51.554;7.812;2023-09-19T16:11:26;4.75;;;1.45;;
78197;SDS011;67472;51.554;7.812;2023-09-19T16:14:13;4.63;;;1.00;;
78197;SDS011;67472;51.554;7.812;2023-09-19T16:16:59;1.63;;;0.80;;
78197;SDS011;67472;51.554;7.812;2023-09-19T16:19:48;4.25;;;1.40;;
78197;SDS011;67472;51.554;7.812;2023-09-19T16:22:34;3.80;;;1.50;;
78197;SDS011;67472;51.554;7.812;2023-09-19T16:25:20;2.03;;;0.75;;
78197;SDS011;67472;51.554;7.812;2023-09-19T16:28:06;3.78;;;1.05;;
78197;SDS011;67472;51.554;7.812;2023-09-19T16:30:57;3.65;;;1.02;;
78197;SDS011;67472;51.554;7.812;2023-09-19T16:33:45;4.90;;;1.10;;
78197;SDS011;67472;51.554;7.812;2023-09-19T16:36:33;1.60;;;0.77;;
78197;SDS011;67472;51.554;7.812;2023-09-19T16:39:19;3.30;;;0.88;;
78197;SDS011;67472;51.554;7.812;2023-09-19T16:42:06;5.70;;;0.90;;
78197;SDS011;67472;51.554;7.812;2023-09-19T16:44:55;1.42;;;0.93;;
78197;SDS011;67472;51.554;7.812;2023-09-19T16:47:41;3.97;;;1.00;;
78197;SDS011;67472;51.554;7.812;2023-09-19T16:50:27;5.10;;;0.98;;
78197;SDS011;67472;51.554;7.812;2023-09-19T16:53:14;5.78;;;0.75;;
78197;SDS011;67472;51.554;7.812;2023-09-19T16:56:02;1.40;;;0.80;;
78197;SDS011;67472;51.554;7.812;2023-09-19T16:58:50;2.53;;;0.90;;
78197;SDS011;67472;51.554;7.812;2023-09-19T17:01:36;3.97;;;0.93;;